Time;durP1;ratioP1;P1;durP2;ratioP2;P2;SDS_P1;SDS_P2;PMS_P1;PMS_P2;Temp;Humidity;BMP_temperature;BMP_pressure;BME280_temperature;BME280_humidity;BME280_pressure;Samples;Min_cycle;Max_cycle;Signal;HPM_P1;HPM_P2
2021/05/13 00:00:41;;;;;;;1.20;0.90;;;21.50;50.60;;;;;;6245671;28;20478;-78
2021/05/13 00:03:42;;;;;;;0.63;0.60;;;21.50;50.70;;;;;;6245423;28;20029;-78
2021/05/13 00:06:43;;;;;;;0.77;0.77;;;21.50;50.70;;;;;;6244295;28;20515;-78
2021/05/13 00:09:44;;;;;;;1.52;0.80;;;21.50;50.60;;;;;;6245822;28;20036;-78
2021/05/13 00:15:45;;;;;;;1.25;0.60;;;21.50;50.60;;;;;;6243427;28;20022;-77
2021/05/13 00:18:46;;;;;;;0.95;0.82;;;21.50;50.60;;;;;;6243762;28;20063;-78
2021/05/13 00:21:47;;;;;;;1.33;0.80;;;21.50;50.60;;;;;;6245309;28;20507;-78
2021/05/13 00:24:47;;;;;;;1.10;0.82;;;21.50;50.60;;;;;;6243774;28;20021;-78
2021/05/13 00:27:48;;;;;;;0.90;0.75;;;21.50;50.70;;;;;;6244990;28;20021;-78
2021/05/13 00:30:49;;;;;;;1.05;0.80;;;21.50;50.70;;;;;;6244117;28;20402;-78
2021/05/13 00:33:50;;;;;;;1.08;0.77;;;21.50;51.30;;;;;;6244933;28;20494;-78
2021/05/13 00:36:50;;;;;;;0.63;0.60;;;21.50;50.70;;;;;;6243366;28;20049;-78
2021/05/13 00:39:51;;;;;;;0.90;0.80;;;21.50;50.70;;;;;;6243283;28;20507;-78
2021/05/13 00:42:52;;;;;;;1.00;0.70;;;21.50;50.70;;;;;;6243261;28;20085;-78
2021/05/13 00:45:52;;;;;;;0.93;0.77;;;21.50;50.70;;;;;;6244877;28;20101;-78
2021/05/13 00:49:01;;;;;;;1.05;0.90;;;21.50;50.70;;;;;;6244890;28;20476;-78
2021/05/13 00:52:02;;;;;;;0.50;0.50;;;21.50;50.70;;;;;;6244777;28;20072;-78
2021/05/13 00:55:03;;;;;;;0.75;0.60;;;21.50;50.70;;;;;;6244630;28;20017;-78
2021/05/13 00:58:06;;;;;;;0.95;0.60;;;21.50;50.70;;;;;;6242880;28;20025;-77
2021/05/13 01:01:15;;;;;;;1.25;0.70;;;21.50;50.70;;;;;;6245008;28;20033;-78
2021/05/13 01:04:19;;;;;;;0.70;0.70;;;21.50;50.70;;;;;;6244463;28;20681;-78
2021/05/13 01:07:20;;;;;;;1.27;0.82;;;21.50;50.70;;;;;;6242671;28;20022;-78
2021/05/13 01:10:20;;;;;;;0.50;0.45;;;21.50;50.70;;;;;;6244715;28;20476;-78
2021/05/13 01:13:23;;;;;;;1.08;0.70;;;21.50;50.70;;;;;;6243412;28;20488;-78
2021/05/13 01:16:28;;;;;;;0.68;0.68;;;21.50;50.70;;;;;;6244608;28;20584;-78
2021/05/13 01:19:29;;;;;;;1.05;0.73;;;21.50;50.70;;;;;;6244384;28;20373;-78
2021/05/13 01:22:30;;;;;;;1.13;0.80;;;21.50;50.70;;;;;;6243703;28;20034;-78
2021/05/13 01:25:30;;;;;;;0.80;0.70;;;21.50;50.70;;;;;;6242913;28;20117;-80
2021/05/13 01:28:31;;;;;;;1.00;0.60;;;21.50;50.70;;;;;;6244250;28;20032;-78
2021/05/13 01:31:32;;;;;;;0.88;0.63;;;21.50;50.70;;;;;;6244915;28;20026;-78
2021/05/13 01:34:32;;;;;;;0.52;0.40;;;21.50;50.70;;;;;;6243801;28;20431;-78
2021/05/13 01:37:33;;;;;;;0.70;0.60;;;21.50;50.70;;;;;;6244414;28;20123;-78
2021/05/13 01:40:35;;;;;;;0.80;0.60;;;21.50;50.70;;;;;;6244733;28;20030;-77
2021/05/13 01:43:35;;;;;;;0.93;0.75;;;21.50;50.70;;;;;;6245190;28;20017;-78
2021/05/13 01:46:37;;;;;;;0.90;0.60;;;21.50;50.70;;;;;;6244101;28;20053;-78
2021/05/13 01:49:38;;;;;;;1.00;0.68;;;21.50;50.70;;;;;;6244435;28;20030;-78
2021/05/13 01:52:39;;;;;;;0.60;0.60;;;21.50;50.70;;;;;;6244007;28;20038;-77
2021/05/13 01:55:40;;;;;;;1.58;1.00;;;21.50;50.70;;;;;;6244451;28;20427;-78
2021/05/13 01:58:42;;;;;;;0.63;0.52;;;21.50;50.70;;;;;;6244587;28;20029;-78
2021/05/13 02:01:42;;;;;;;0.60;0.60;;;21.50;50.70;;;;;;6244056;28;20029;-78
2021/05/13 02:04:43;;;;;;;0.68;0.40;;;21.50;50.70;;;;;;6243875;28;20048;-78
2021/05/13 02:07:44;;;;;;;0.77;0.70;;;21.50;50.70;;;;;;6244042;28;20109;-78
2021/05/13 02:10:45;;;;;;;0.80;0.63;;;21.50;50.70;;;;;;6245669;28;20025;-78
2021/05/13 02:13:45;;;;;;;0.55;0.52;;;21.50;50.70;;;;;;6248901;28;20025;-78
2021/05/13 02:16:46;;;;;;;0.70;0.60;;;21.50;50.70;;;;;;6248574;28;20021;-78
2021/05/13 02:19:46;;;;;;;0.57;0.50;;;21.50;50.70;;;;;;6248613;28;20109;-78
2021/05/13 02:22:47;;;;;;;0.45;0.45;;;21.50;50.70;;;;;;6248141;28;20510;-77
2021/05/13 02:25:49;;;;;;;0.98;0.63;;;21.50;50.70;;;;;;6247994;28;20021;-78
2021/05/13 02:28:50;;;;;;;0.75;0.60;;;21.50;50.70;;;;;;6249020;28;20450;-77
2021/05/13 02:31:50;;;;;;;1.23;0.60;;;21.50;50.70;;;;;;6247018;28;20036;-78
2021/05/13 02:34:51;;;;;;;0.73;0.60;;;21.50;50.70;;;;;;6246661;28;20053;-79
2021/05/13 02:37:52;;;;;;;0.60;0.57;;;21.50;50.70;;;;;;6236512;28;20034;-77
2021/05/13 02:40:52;;;;;;;0.73;0.60;;;21.50;50.70;;;;;;6234031;28;20036;-77
2021/05/13 02:43:53;;;;;;;0.43;0.43;;;21.50;50.70;;;;;;6248454;28;20025;-77
2021/05/13 02:46:53;;;;;;;0.60;0.60;;;21.50;50.70;;;;;;6247873;28;20143;-78
2021/05/13 02:49:54;;;;;;;0.55;0.52;;;21.50;50.70;;;;;;6246809;28;20029;-77
2021/05/13 02:52:54;;;;;;;1.05;0.70;;;21.50;50.70;;;;;;6246603;28;20488;-78
2021/05/13 02:55:55;;;;;;;0.68;0.60;;;21.50;50.70;;;;;;6247100;28;20395;-77
2021/05/13 02:58:56;;;;;;;0.73;0.40;;;21.50;50.70;;;;;;6247420;28;20087;-77
2021/05/13 03:01:56;;;;;;;0.77;0.70;;;21.50;50.70;;;;;;6247757;28;20026;-78
2021/05/13 03:04:57;;;;;;;0.73;0.57;;;21.50;50.70;;;;;;6247426;28;20091;-78
2021/05/13 03:08:01;;;;;;;0.43;0.43;;;21.50;50.70;;;;;;6247866;28;20057;-78
2021/05/13 03:11:02;;;;;;;1.03;0.60;;;21.50;50.70;;;;;;6246895;28;20037;-78
2021/05/13 03:14:04;;;;;;;1.05;0.60;;;21.50;50.70;;;;;;6245840;28;20793;-78
2021/05/13 03:17:04;;;;;;;0.60;0.60;;;21.50;50.70;;;;;;6247247;28;20029;-78
2021/05/13 03:20:06;;;;;;;0.68;0.50;;;21.50;50.70;;;;;;6247137;28;20079;-78
2021/05/13 03:23:10;;;;;;;0.40;0.40;;;21.50;50.70;;;;;;6245771;28;20032;-78
2021/05/13 03:26:11;;;;;;;0.90;0.50;;;21.50;50.70;;;;;;6245234;28;20030;-78
2021/05/13 03:29:11;;;;;;;0.77;0.60;;;21.50;50.70;;;;;;6245794;28;20135;-78
2021/05/13 03:32:12;;;;;;;0.77;0.55;;;21.50;50.70;;;;;;6245214;28;20034;-78
2021/05/13 03:35:14;;;;;;;0.50;0.50;;;21.50;50.70;;;;;;6246083;28;20049;-78
2021/05/13 03:38:15;;;;;;;0.63;0.40;;;21.50;50.70;;;;;;6246271;28;20052;-78
2021/05/13 03:41:15;;;;;;;0.70;0.60;;;21.50;50.70;;;;;;6244894;28;20056;-78
2021/05/13 03:44:16;;;;;;;0.60;0.60;;;21.50;50.70;;;;;;6246251;28;20506;-78
2021/05/13 03:47:16;;;;;;;0.70;0.55;;;21.50;50.70;;;;;;6245170;28;20045;-78
2021/05/13 03:50:17;;;;;;;0.77;0.70;;;21.50;50.70;;;;;;6244884;28;20059;-78
2021/05/13 03:53:18;;;;;;;0.98;0.70;;;21.50;50.70;;;;;;6245472;28;20653;-78
2021/05/13 03:56:18;;;;;;;0.55;0.50;;;21.50;50.70;;;;;;6245940;28;20681;-78
2021/05/13 04:03:16;;;;;;;0.57;0.50;;;21.50;50.70;;;;;;6245880;28;20112;-78
2021/05/13 04:06:16;;;;;;;0.40;0.40;;;21.50;50.70;;;;;;6245692;28;20396;-78
2021/05/13 04:09:17;;;;;;;0.40;0.40;;;21.50;50.70;;;;;;6244781;28;20060;-78
2021/05/13 04:12:17;;;;;;;0.50;0.50;;;21.50;50.70;;;;;;6245111;28;20573;-78
2021/05/13 04:15:18;;;;;;;0.65;0.50;;;21.50;50.70;;;;;;6245605;28;20056;-78
2021/05/13 04:18:19;;;;;;;0.57;0.50;;;21.50;50.70;;;;;;6243130;28;20025;-77
2021/05/13 04:21:20;;;;;;;0.52;0.50;;;21.50;50.70;;;;;;6243970;28;20021;-78
2021/05/13 04:24:20;;;;;;;0.70;0.50;;;21.50;50.70;;;;;;6245304;28;20486;-78
2021/05/13 04:27:21;;;;;;;0.50;0.50;;;21.50;50.70;;;;;;6245257;28;20032;-78
2021/05/13 04:30:22;;;;;;;0.60;0.40;;;21.50;50.70;;;;;;6244615;28;20033;-78
2021/05/13 04:33:22;;;;;;;0.40;0.40;;;21.50;50.70;;;;;;6243690;28;20038;-78
2021/05/13 04:36:23;;;;;;;0.45;0.43;;;21.50;50.70;;;;;;6243520;28;20056;-78
2021/05/13 04:39:23;;;;;;;1.10;0.40;;;21.50;50.70;;;;;;6244690;28;20128;-77
2021/05/13 04:42:24;;;;;;;0.40;0.40;;;21.50;50.70;;;;;;6244727;28;20018;-78
2021/05/13 04:45:25;;;;;;;0.80;0.60;;;21.50;50.70;;;;;;6244924;28;20079;-78
2021/05/13 04:48:28;;;;;;;0.70;0.50;;;21.50;50.70;;;;;;6244138;28;20021;-77
2021/05/13 04:51:33;;;;;;;0.50;0.47;;;21.50;50.70;;;;;;6244349;28;20033;-77
2021/05/13 04:54:33;;;;;;;;;;;21.50;50.70;;;;;;6245040;28;20064;-78
2021/05/13 04:57:37;;;;;;;0.50;0.40;;;21.50;50.70;;;;;;6244493;28;19917;-77
2021/05/13 05:00:38;;;;;;;0.70;0.50;;;21.50;50.70;;;;;;6243073;28;20480;-78
2021/05/13 05:03:39;;;;;;;0.98;0.70;;;21.60;50.80;;;;;;6237806;28;20083;-78
2021/05/13 05:06:39;;;;;;;0.70;0.60;;;21.50;50.70;;;;;;6269040;28;20017;-77
2021/05/13 05:09:40;;;;;;;0.40;0.40;;;21.50;50.70;;;;;;6256920;28;20494;-78
2021/05/13 05:12:40;;;;;;;0.80;0.55;;;21.60;50.90;;;;;;6243928;28;20042;-78
2021/05/13 05:15:41;;;;;;;0.68;0.38;;;21.50;50.80;;;;;;6244528;28;20415;-78
2021/05/13 05:18:41;;;;;;;0.50;0.50;;;21.50;50.70;;;;;;6244014;28;20037;-77
2021/05/13 05:21:42;;;;;;;0.50;0.47;;;21.50;50.70;;;;;;6244057;28;20053;-78
2021/05/13 05:24:42;;;;;;;0.55;0.55;;;21.50;50.70;;;;;;6244149;28;20615;-78
2021/05/13 05:27:43;;;;;;;0.40;0.40;;;21.50;50.70;;;;;;6242682;28;20053;-78
2021/05/13 05:30:43;;;;;;;0.65;0.50;;;21.50;50.70;;;;;;6243838;28;20029;-77
2021/05/13 05:33:44;;;;;;;0.60;0.40;;;21.50;50.70;;;;;;6243856;28;20025;-77
2021/05/13 05:36:44;;;;;;;0.40;0.40;;;21.60;50.80;;;;;;6243813;28;20458;-77
2021/05/13 05:39:45;;;;;;;0.47;0.47;;;21.50;50.70;;;;;;6242727;28;20207;-78
2021/05/13 05:42:45;;;;;;;0.45;0.45;;;21.60;50.80;;;;;;6243927;28;20124;-77
2021/05/13 05:45:46;;;;;;;0.50;0.45;;;21.50;50.70;;;;;;6245174;28;20445;-78
2021/05/13 05:48:46;;;;;;;0.82;0.50;;;21.50;50.70;;;;;;6248598;28;20021;-77
2021/05/13 05:51:47;;;;;;;0.65;0.50;;;21.60;50.80;;;;;;6248498;28;20088;-78
2021/05/13 05:54:47;;;;;;;2.88;0.70;;;21.50;50.70;;;;;;6248734;28;20026;-78
2021/05/13 05:57:48;;;;;;;0.40;0.40;;;21.50;50.70;;;;;;6248464;28;20028;-77
2021/05/13 06:00:49;;;;;;;0.65;0.50;;;21.50;50.70;;;;;;6244689;28;20036;-78
2021/05/13 06:03:49;;;;;;;1.15;0.70;;;21.50;50.70;;;;;;6251849;28;20483;-77
2021/05/13 06:06:50;;;;;;;0.60;0.40;;;21.50;50.70;;;;;;6251294;28;20048;-77
2021/05/13 06:09:50;;;;;;;0.50;0.47;;;21.50;50.70;;;;;;6247444;28;20052;-78
2021/05/13 06:12:53;;;;;;;0.45;0.40;;;21.50;50.70;;;;;;6250590;28;20555;-78
2021/05/13 06:15:53;;;;;;;0.63;0.50;;;21.50;50.70;;;;;;6251407;28;20025;-77
2021/05/13 06:18:58;;;;;;;0.40;0.40;;;21.50;50.70;;;;;;6251752;28;20032;-78
2021/05/13 06:21:59;;;;;;;0.45;0.40;;;21.50;50.70;;;;;;6249823;28;20025;-77
2021/05/13 06:24:59;;;;;;;0.55;0.50;;;21.50;50.70;;;;;;6250778;28;20527;-77
2021/05/13 06:28:00;;;;;;;0.90;0.60;;;21.50;50.70;;;;;;6251529;28;20048;-78
2021/05/13 06:31:00;;;;;;;0.52;0.45;;;21.50;50.70;;;;;;6251412;28;20072;-77
2021/05/13 06:34:01;;;;;;;0.65;0.60;;;21.50;50.70;;;;;;6251362;28;20388;-78
2021/05/13 06:37:03;;;;;;;0.43;0.40;;;21.50;50.70;;;;;;6250769;28;20064;-78
2021/05/13 06:40:05;;;;;;;0.38;0.38;;;21.50;50.70;;;;;;6249910;28;20401;-78
2021/05/13 06:43:06;;;;;;;0.70;0.57;;;21.60;50.80;;;;;;6251065;28;20031;-78
2021/05/13 06:46:06;;;;;;;0.50;0.45;;;21.50;50.70;;;;;;6250447;28;20025;-77
2021/05/13 06:49:07;;;;;;;0.47;0.32;;;21.50;50.70;;;;;;6251342;28;20391;-77
2021/05/13 06:52:07;;;;;;;0.77;0.52;;;21.50;50.70;;;;;;6250348;28;20040;-78
2021/05/13 06:55:09;;;;;;;0.60;0.55;;;21.50;50.70;;;;;;6250795;28;20052;-78
2021/05/13 06:58:09;;;;;;;0.43;0.43;;;21.50;50.70;;;;;;6249271;28;20100;-78
2021/05/13 07:01:10;;;;;;;0.68;0.60;;;21.60;50.90;;;;;;6250288;28;20079;-78
2021/05/13 07:04:10;;;;;;;0.68;0.50;;;21.50;50.70;;;;;;6248924;28;20026;-77
2021/05/13 07:07:12;;;;;;;0.60;0.43;;;21.50;50.80;;;;;;6250146;28;20299;-77
2021/05/13 07:10:12;;;;;;;0.50;0.40;;;21.50;50.70;;;;;;6250198;28;20021;-78
2021/05/13 07:13:13;;;;;;;0.60;0.50;;;21.50;50.70;;;;;;6248392;28;20036;-78
2021/05/13 07:16:13;;;;;;;0.40;0.40;;;21.50;50.70;;;;;;6248321;28;20024;-78
2021/05/13 07:19:14;;;;;;;0.45;0.45;;;21.50;50.70;;;;;;6249823;28;20123;-77
2021/05/13 07:22:17;;;;;;;0.52;0.50;;;21.50;50.70;;;;;;6248482;28;20028;-77
2021/05/13 07:25:18;;;;;;;0.60;0.40;;;21.50;50.70;;;;;;6249743;28;20084;-77
2021/05/13 07:28:18;;;;;;;0.70;0.60;;;21.50;50.70;;;;;;6204770;28;20062;-78
2021/05/13 07:31:19;;;;;;;0.43;0.40;;;21.50;50.80;;;;;;6222383;28;20500;-77
2021/05/13 07:34:20;;;;;;;0.60;0.50;;;21.50;50.70;;;;;;6222071;28;20026;-77
2021/05/13 07:37:22;;;;;;;0.52;0.38;;;21.50;50.80;;;;;;6197303;28;20145;-77
2021/05/13 07:40:25;;;;;;;0.57;0.50;;;21.50;50.80;;;;;;6198276;28;20169;-77
2021/05/13 07:43:26;;;;;;;0.30;0.30;;;21.50;50.80;;;;;;6215524;28;20038;-77
2021/05/13 07:46:33;;;;;;;0.50;0.50;;;21.60;50.80;;;;;;6221961;28;20065;-78
2021/05/13 07:49:34;;;;;;;0.40;0.40;;;21.50;50.80;;;;;;6222062;28;20487;-77
2021/05/13 07:52:35;;;;;;;0.40;0.40;;;21.60;50.90;;;;;;6221561;28;20053;-78
2021/05/13 07:55:37;;;;;;;0.45;0.40;;;21.60;50.80;;;;;;6222108;28;20026;-77
2021/05/13 07:58:37;;;;;;;0.52;0.50;;;21.50;50.80;;;;;;6231913;28;20068;-77
2021/05/13 08:01:38;;;;;;;0.80;0.55;;;21.50;50.80;;;;;;6248726;28;20025;-77
2021/05/13 08:04:38;;;;;;;0.22;0.22;;;21.50;50.80;;;;;;6248277;28;20104;-77
2021/05/13 08:07:39;;;;;;;0.40;0.40;;;21.50;50.80;;;;;;6247135;28;20029;-78
2021/05/13 08:10:41;;;;;;;0.52;0.40;;;21.60;50.90;;;;;;6246773;28;20113;-78
2021/05/13 08:13:41;;;;;;;0.57;0.50;;;21.50;50.80;;;;;;6247885;28;20045;-78
2021/05/13 08:16:42;;;;;;;0.30;0.30;;;21.50;50.80;;;;;;6248609;28;20032;-78
2021/05/13 08:19:42;;;;;;;0.50;0.40;;;21.60;50.90;;;;;;6248747;28;20026;-77
2021/05/13 08:22:44;;;;;;;0.45;0.40;;;21.60;50.90;;;;;;6248061;28;20091;-77
2021/05/13 08:25:44;;;;;;;0.60;0.40;;;21.50;50.80;;;;;;6248340;28;20069;-77
2021/05/13 08:28:45;;;;;;;0.55;0.40;;;21.50;50.80;;;;;;6248361;28;20029;-78
2021/05/13 08:31:45;;;;;;;0.68;0.50;;;21.60;50.90;;;;;;6248388;28;20449;-78
2021/05/13 08:34:46;;;;;;;0.40;0.40;;;21.60;50.90;;;;;;6248545;28;20132;-77
2021/05/13 08:37:46;;;;;;;0.50;0.45;;;21.50;50.80;;;;;;6248581;28;20042;-77
2021/05/13 08:40:48;;;;;;;0.55;0.40;;;21.50;50.80;;;;;;6248230;28;20025;-77
2021/05/13 08:43:52;;;;;;;0.65;0.40;;;21.60;50.90;;;;;;6247363;28;20072;-77
2021/05/13 08:46:53;;;;;;;0.43;0.43;;;21.50;50.80;;;;;;6247324;28;20043;-78
2021/05/13 08:49:53;;;;;;;0.40;0.40;;;21.60;50.90;;;;;;6245986;28;20021;-77
2021/05/13 08:53:02;;;;;;;0.50;0.50;;;21.50;50.80;;;;;;6246910;28;20041;-78
2021/05/13 08:56:04;;;;;;;0.40;0.40;;;21.50;50.80;;;;;;6244015;28;20551;-78
2021/05/13 08:59:05;;;;;;;0.40;0.40;;;21.60;51.60;;;;;;6245664;28;20475;-78
2021/05/13 09:02:09;;;;;;;0.30;0.30;;;21.50;50.80;;;;;;6247082;28;20029;-77
2021/05/13 09:05:11;;;;;;;0.57;0.40;;;21.50;50.80;;;;;;6247035;28;20423;-78
2021/05/13 09:08:20;;;;;;;0.73;0.40;;;21.60;50.90;;;;;;6245459;28;20033;-77
2021/05/13 09:11:21;;;;;;;0.68;0.50;;;21.50;50.80;;;;;;6247038;28;20021;-78
2021/05/13 09:14:31;;;;;;;0.50;0.50;;;21.50;50.80;;;;;;6242682;28;20029;-77
2021/05/13 09:17:32;;;;;;;0.32;0.32;;;21.60;50.90;;;;;;6247129;28;20381;-78
2021/05/13 09:20:38;;;;;;;0.30;0.30;;;21.60;50.90;;;;;;6252079;28;20029;-77
2021/05/13 09:23:38;;;;;;;0.50;0.40;;;21.60;50.90;;;;;;6254894;28;20369;-77
2021/05/13 09:26:39;;;;;;;0.40;0.40;;;21.60;50.90;;;;;;6255189;28;20025;-78
2021/05/13 09:29:40;;;;;;;0.68;0.50;;;21.60;50.90;;;;;;6253492;28;20079;-78
2021/05/13 09:32:42;;;;;;;0.40;0.35;;;21.60;50.90;;;;;;6254729;28;20037;-77
2021/05/13 09:35:44;;;;;;;0.32;0.32;;;21.60;50.90;;;;;;6254693;28;20145;-77
2021/05/13 09:38:44;;;;;;;0.40;0.40;;;21.50;50.80;;;;;;6254457;28;20030;-78
2021/05/13 09:42:03;;;;;;;0.52;0.40;;;21.50;50.80;;;;;;6255005;28;20029;-78
2021/05/13 09:45:08;;;;;;;0.40;0.30;;;21.50;50.80;;;;;;6254949;28;20048;-78
2021/05/13 09:48:09;;;;;;;0.30;0.30;;;21.60;50.90;;;;;;6255359;28;20017;-78
2021/05/13 09:51:29;;;;;;;0.60;0.52;;;21.60;50.90;;;;;;6254318;28;20026;-78
2021/05/13 09:54:30;;;;;;;0.40;0.40;;;21.60;50.90;;;;;;6254199;28;20033;-78
2021/05/13 09:57:31;;;;;;;0.50;0.40;;;21.50;50.80;;;;;;6256776;28;20478;-77
2021/05/13 10:00:48;;;;;;;0.22;0.22;;;21.60;50.90;;;;;;6254415;28;20068;-78
2021/05/13 10:03:52;;;;;;;0.93;0.50;;;21.60;50.90;;;;;;6255725;28;20087;-78
2021/05/13 10:06:53;;;;;;;0.40;0.40;;;21.60;50.90;;;;;;6255358;28;20080;-78
2021/05/13 10:09:54;;;;;;;0.32;0.32;;;21.50;50.80;;;;;;6255210;28;20427;-78
2021/05/13 10:12:57;;;;;;;0.32;0.32;;;21.60;50.90;;;;;;6254641;28;20033;-78
2021/05/13 10:15:58;;;;;;;0.50;0.40;;;21.50;50.80;;;;;;6255500;28;20061;-78
2021/05/13 10:19:04;;;;;;;0.40;0.40;;;21.60;50.90;;;;;;6250911;28;20028;-78
2021/05/13 10:22:07;;;;;;;0.35;0.20;;;21.60;51.00;;;;;;6253696;28;20025;-77
2021/05/13 10:25:24;;;;;;;0.95;0.50;;;21.60;50.90;;;;;;6255435;28;20385;-78
2021/05/13 10:28:34;;;;;;;0.55;0.32;;;21.50;50.90;;;;;;6255011;28;20300;-79
2021/05/13 10:31:36;;;;;;;0.63;0.40;;;21.50;50.80;;;;;;6253736;28;20093;-78
2021/05/13 10:34:49;;;;;;;0.38;0.38;;;21.60;50.90;;;;;;6251632;28;20042;-78
2021/05/13 10:37:58;;;;;;;0.70;0.40;;;21.60;50.90;;;;;;6252354;28;20029;-78
2021/05/13 10:41:07;;;;;;;1.10;0.50;;;21.60;50.90;;;;;;6252286;28;20127;-78
2021/05/13 10:44:11;;;;;;;0.55;0.40;;;21.60;50.90;;;;;;6250942;28;20033;-78
2021/05/13 10:47:27;;;;;;;0.57;0.40;;;21.60;50.90;;;;;;6250476;28;20488;-78
2021/05/13 10:50:47;;;;;;;0.30;0.30;;;21.60;51.00;;;;;;6250350;28;20511;-78
2021/05/13 10:53:48;;;;;;;0.43;0.40;;;21.60;50.90;;;;;;6250548;28;20029;-78
2021/05/13 10:56:49;;;;;;;0.30;0.30;;;21.60;51.00;;;;;;6249612;28;20025;-78
2021/05/13 11:00:08;;;;;;;0.35;0.35;;;21.60;51.00;;;;;;6250299;28;20029;-78
2021/05/13 11:03:19;;;;;;;0.40;0.22;;;21.50;50.90;;;;;;6250159;28;20021;-78
2021/05/13 11:06:59;;;;;;;0.30;0.30;;;21.60;50.90;;;;;;6256823;28;20384;-78
2021/05/13 11:10:00;;;;;;;0.93;0.40;;;21.60;51.00;;;;;;6174122;28;20393;-78
2021/05/13 11:13:10;;;;;;;0.43;0.43;;;21.60;51.00;;;;;;6155476;28;20054;-78
2021/05/13 11:16:40;;;;;;;0.40;0.40;;;21.60;50.90;;;;;;6226876;28;20448;-78
2021/05/13 11:19:41;;;;;;;0.50;0.30;;;21.60;51.00;;;;;;6250028;28;20053;-79
2021/05/13 11:23:05;;;;;;;0.40;0.40;;;21.60;51.00;;;;;;6249508;28;20032;-78
2021/05/13 11:26:12;;;;;;;0.30;0.30;;;21.60;51.00;;;;;;6249137;28;20060;-78
2021/05/13 11:29:13;;;;;;;0.20;0.20;;;21.60;51.00;;;;;;6247506;28;20118;-78
2021/05/13 11:32:15;;;;;;;0.10;0.10;;;21.60;51.00;;;;;;6249207;28;20038;-78
2021/05/13 11:35:19;;;;;;;0.40;0.20;;;21.60;51.00;;;;;;6231975;28;20148;-79
2021/05/13 11:38:22;;;;;;;0.28;0.28;;;21.60;51.10;;;;;;6244675;28;20053;-79
2021/05/13 11:41:23;;;;;;;0.40;0.40;;;21.60;51.20;;;;;;6223187;28;20092;-78
2021/05/13 11:44:24;;;;;;;0.40;0.40;;;21.60;51.20;;;;;;6242444;28;20504;-79
2021/05/13 11:47:31;;;;;;;0.52;0.32;;;21.60;51.10;;;;;;6245599;28;20029;-78
2021/05/13 11:50:32;;;;;;;0.75;0.47;;;21.60;51.10;;;;;;6248054;28;20384;-79
2021/05/13 11:53:33;;;;;;;0.30;0.30;;;21.60;51.00;;;;;;6245896;28;20044;-77
2021/05/13 11:56:36;;;;;;;0.43;0.30;;;21.60;51.10;;;;;;6246203;28;20052;-78
2021/05/13 11:59:37;;;;;;;0.40;0.40;;;21.60;51.00;;;;;;6245813;28;20079;-78
2021/05/13 12:02:37;;;;;;;0.20;0.20;;;21.60;51.00;;;;;;6246576;28;20029;-78
2021/05/13 12:05:58;;;;;;;0.20;0.20;;;21.60;51.00;;;;;;6247379;28;20060;-77
2021/05/13 12:09:00;;;;;;;0.50;0.40;;;21.60;51.00;;;;;;6244520;28;20370;-77
2021/05/13 12:12:02;;;;;;;0.30;0.30;;;21.60;51.00;;;;;;6246310;28;20033;-78
2021/05/13 12:15:14;;;;;;;0.40;0.40;;;21.60;51.00;;;;;;6247034;28;20043;-78
2021/05/13 12:18:15;;;;;;;0.43;0.30;;;21.60;51.00;;;;;;6245648;28;20104;-78
2021/05/13 12:21:18;;;;;;;0.32;0.32;;;21.60;51.70;;;;;;6245812;28;20496;-78
2021/05/13 12:24:30;;;;;;;0.30;0.30;;;21.60;51.20;;;;;;6241142;28;20030;-78
2021/05/13 12:27:31;;;;;;;1.05;0.47;;;21.60;51.00;;;;;;6244968;28;20052;-78
2021/05/13 12:30:32;;;;;;;0.30;0.30;;;21.60;51.00;;;;;;6246699;28;20029;-78
2021/05/13 12:33:35;;;;;;;0.28;0.20;;;21.60;51.00;;;;;;6243383;28;20033;-77
2021/05/13 12:36:39;;;;;;;0.30;0.30;;;21.60;51.00;;;;;;6244549;28;20058;-78
2021/05/13 12:39:40;;;;;;;0.30;0.30;;;21.60;51.00;;;;;;6244448;28;20029;-79
2021/05/13 12:42:41;;;;;;;0.30;0.30;;;21.60;51.00;;;;;;6245856;28;20022;-78
2021/05/13 12:45:43;;;;;;;0.50;0.30;;;21.60;51.00;;;;;;6236010;28;20057;-78
2021/05/13 12:48:44;;;;;;;0.52;0.43;;;21.60;51.10;;;;;;6243477;28;20140;-78
2021/05/13 12:52:03;;;;;;;0.40;0.30;;;21.60;51.00;;;;;;6244970;28;20123;-78
2021/05/13 12:55:17;;;;;;;0.30;0.30;;;21.60;51.00;;;;;;6245495;28;20127;-78
2021/05/13 12:58:23;;;;;;;0.30;0.30;;;21.60;51.00;;;;;;6244785;28;20036;-79
2021/05/13 13:01:24;;;;;;;0.30;0.30;;;21.60;51.10;;;;;;6245711;28;20021;-79
2021/05/13 13:04:24;;;;;;;0.15;0.15;;;21.60;51.10;;;;;;6244411;28;20472;-77
2021/05/13 13:07:46;;;;;;;0.35;0.30;;;21.60;51.00;;;;;;6245523;28;20622;-78
2021/05/13 13:10:46;;;;;;;0.22;0.22;;;21.60;51.10;;;;;;6245231;28;20013;-78
2021/05/13 13:13:48;;;;;;;0.20;0.20;;;21.60;51.00;;;;;;6244997;28;20025;-78
2021/05/13 13:16:49;;;;;;;0.30;0.30;;;21.60;51.10;;;;;;6246034;28;20022;-79
2021/05/13 13:20:04;;;;;;;0.22;0.22;;;21.60;51.00;;;;;;6245087;28;20075;-79
2021/05/13 13:23:24;;;;;;;0.20;0.20;;;21.60;51.10;;;;;;6244143;28;20026;-78
2021/05/13 13:26:31;;;;;;;0.30;0.30;;;21.60;51.00;;;;;;6221872;28;20026;-78
2021/05/13 13:29:31;;;;;;;0.60;0.47;;;21.60;51.10;;;;;;6245562;28;20033;-73
2021/05/13 13:32:32;;;;;;;0.20;0.20;;;21.60;52.50;;;;;;6244872;28;20455;-77
2021/05/13 13:35:38;;;;;;;1.20;0.55;;;21.70;52.70;;;;;;6243372;28;20824;-77
2021/05/13 13:38:40;;;;;;;1.42;0.40;;;21.70;52.60;;;;;;6243169;28;20029;-78
2021/05/13 13:41:41;;;;;;;0.50;0.30;;;21.80;51.70;;;;;;6220344;28;20370;-77
2021/05/13 13:44:41;;;;;;;0.28;0.25;;;21.70;51.70;;;;;;6242055;28;20056;-77
2021/05/13 13:47:42;;;;;;;0.20;0.20;;;21.70;51.60;;;;;;6242633;28;20025;-77
2021/05/13 13:50:45;;;;;;;1.80;0.40;;;21.70;51.50;;;;;;6239982;28;20108;-77
2021/05/13 13:53:46;;;;;;;0.50;0.30;;;21.70;51.50;;;;;;6242683;28;20036;-77
2021/05/13 13:56:46;;;;;;;0.57;0.40;;;21.70;51.40;;;;;;6243644;28;20407;-77
2021/05/13 13:59:47;;;;;;;0.40;0.30;;;21.60;51.40;;;;;;6242680;28;20055;-77
2021/05/13 14:02:50;;;;;;;0.95;0.30;;;21.60;51.40;;;;;;6243810;28;20025;-77
2021/05/13 14:05:51;;;;;;;0.30;0.30;;;21.60;51.40;;;;;;6243193;28;20125;-76
2021/05/13 14:08:52;;;;;;;0.45;0.25;;;21.60;50.70;;;;;;6247055;28;20108;-76
2021/05/13 14:11:53;;;;;;;0.30;0.30;;;21.60;51.40;;;;;;6232877;28;20056;-76
2021/05/13 14:14:54;;;;;;;0.17;0.17;;;21.60;51.40;;;;;;6248179;28;20460;-76
2021/05/13 14:17:54;;;;;;;0.52;0.30;;;21.60;51.30;;;;;;6248517;28;20021;-76
2021/05/13 14:20:57;;;;;;;0.50;0.22;;;21.60;51.30;;;;;;6246535;28;20087;-76
2021/05/13 14:23:57;;;;;;;0.13;0.13;;;21.60;52.10;;;;;;6246260;28;20037;-76
2021/05/13 14:26:58;;;;;;;0.40;0.25;;;21.60;51.40;;;;;;6247482;28;20022;-77
2021/05/13 14:29:58;;;;;;;0.30;0.30;;;21.60;51.30;;;;;;6248065;28;20056;-76
2021/05/13 14:32:59;;;;;;;0.30;0.30;;;21.60;51.30;;;;;;6247696;28;20033;-77
2021/05/13 14:35:59;;;;;;;0.40;0.20;;;21.60;51.30;;;;;;6245538;28;20049;-76
2021/05/13 14:39:00;;;;;;;0.50;0.40;;;21.60;51.30;;;;;;6244456;28;20484;-76
2021/05/13 14:42:01;;;;;;;0.57;0.30;;;21.60;51.30;;;;;;6247269;28;20017;-76
2021/05/13 14:45:04;;;;;;;0.30;0.30;;;21.60;51.30;;;;;;6247300;28;20481;-76
2021/05/13 14:51:08;;;;;;;0.20;0.20;;;21.60;51.30;;;;;;6247300;28;20079;-76
2021/05/13 14:54:09;;;;;;;0.57;0.40;;;21.60;51.30;;;;;;6247249;28;20025;-77
2021/05/13 14:57:11;;;;;;;0.43;0.30;;;21.60;51.30;;;;;;6246817;28;20029;-76
2021/05/13 15:00:21;;;;;;;0.20;0.20;;;21.60;51.30;;;;;;6244602;28;20056;-76
2021/05/13 15:03:22;;;;;;;0.43;0.30;;;21.60;51.30;;;;;;6244289;28;20028;-76
2021/05/13 15:06:22;;;;;;;0.40;0.30;;;21.60;51.30;;;;;;6244582;28;20029;-76
2021/05/13 15:09:23;;;;;;;0.20;0.20;;;21.60;51.30;;;;;;6247357;28;20030;-76
2021/05/13 15:12:23;;;;;;;0.20;0.20;;;21.60;51.30;;;;;;6246171;28;20354;-76
2021/05/13 15:15:25;;;;;;;0.95;0.30;;;21.60;51.20;;;;;;6244080;28;20021;-76
2021/05/13 15:18:26;;;;;;;0.28;0.20;;;21.60;51.20;;;;;;6245961;28;20375;-76
2021/05/13 15:21:26;;;;;;;0.28;0.28;;;21.60;51.30;;;;;;6246588;28;20079;-76
2021/05/13 15:24:27;;;;;;;0.20;0.20;;;21.60;51.20;;;;;;6244947;28;20035;-76
2021/05/13 15:27:27;;;;;;;1.10;0.30;;;21.60;51.20;;;;;;6243968;28;20030;-76
2021/05/13 15:30:28;;;;;;;0.40;0.22;;;21.60;51.30;;;;;;6242615;28;20022;-76
2021/05/13 15:33:29;;;;;;;0.35;0.30;;;21.60;51.20;;;;;;6245889;28;20033;-76
2021/05/13 15:36:30;;;;;;;0.50;0.30;;;21.60;51.20;;;;;;6243300;28;20049;-76
2021/05/13 15:39:31;;;;;;;0.73;0.20;;;21.60;51.30;;;;;;6245856;28;20021;-76
2021/05/13 15:42:31;;;;;;;0.52;0.30;;;21.60;51.20;;;;;;6245621;28;20091;-76
2021/05/13 15:45:33;;;;;;;0.22;0.20;;;21.60;51.20;;;;;;6245604;28;20029;-76
2021/05/13 15:48:33;;;;;;;0.85;0.40;;;21.60;51.30;;;;;;6246093;28;20318;-76
2021/05/13 15:51:34;;;;;;;0.20;0.20;;;21.60;51.20;;;;;;6244404;28;20048;-76
2021/05/13 15:54:35;;;;;;;0.50;0.40;;;21.60;51.20;;;;;;6246673;28;20028;-76
2021/05/13 15:57:35;;;;;;;0.40;0.40;;;21.60;51.20;;;;;;6243769;28;20026;-76
2021/05/13 16:00:37;;;;;;;0.75;0.40;;;21.60;51.20;;;;;;6245279;28;20423;-76